Time;durP1;ratioP1;P1;durP2;ratioP2;P2;SDS_P1;SDS_P2;PMS_P1;PMS_P2;Temp;Humidity;BMP_temperature;BMP_pressure;BME280_temperature;BME280_humidity;BME280_pressure;Samples;Min_cycle;Max_cycle;Signal;HPM_P1;HPM_P2
2023/01/22 00:01:17;;;;;;;7.18;3.92;;;;;;;10.56;52.01;100016.66;4259734;33;33616;-82
2023/01/22 00:03:47;;;;;;;8.40;3.90;;;;;;;10.43;52.13;100019.50;4259626;33;34552;-79
2023/01/22 00:06:15;;;;;;;7.12;4.15;;;;;;;10.95;50.97;100026.25;4248743;33;33557;-83
2023/01/22 00:08:43;;;;;;;7.57;4.25;;;;;;;9.11;55.95;100036.84;4258602;33;33312;-83
2023/01/22 00:11:11;;;;;;;8.00;4.20;;;;;;;9.12;56.40;100030.87;4256735;33;33965;-80
2023/01/22 00:13:39;;;;;;;7.57;4.50;;;;;;;9.48;55.42;100025.00;4255419;33;34511;-81
2023/01/22 00:16:07;;;;;;;8.45;3.92;;;;;;;9.15;56.54;100036.19;4257691;33;33798;-83
2023/01/22 00:18:34;;;;;;;8.15;4.35;;;;;;;9.21;56.16;100031.38;4243938;33;34485;-80
2023/01/22 00:21:02;;;;;;;8.90;4.37;;;;;;;9.59;55.28;100024.75;4260108;33;32116;-83
2023/01/22 00:23:29;;;;;;;8.18;4.18;;;;;;;7.94;59.95;100035.41;4259237;33;32648;-81
2023/01/22 00:26:04;;;;;;;8.30;4.15;;;;;;;7.20;62.74;100038.66;4260112;33;34714;-86
2023/01/22 00:28:32;;;;;;;7.93;3.80;;;;;;;8.04;61.23;100044.56;4260099;33;33744;-83
2023/01/22 00:31:01;;;;;;;8.65;4.37;;;;;;;9.38;56.34;100040.00;4260083;33;33510;-82
2023/01/22 00:33:29;;;;;;;7.50;4.12;;;;;;;7.40;61.72;100051.91;4246915;33;34546;-82
2023/01/22 00:36:07;;;;;;;7.97;4.80;;;;;;;7.86;61.95;100050.41;4247187;33;33247;-82
2023/01/22 00:38:35;;;;;;;8.85;4.15;;;;;;;10.35;54.19;100036.34;4263186;33;34798;-84
2023/01/22 00:41:04;;;;;;;7.62;4.00;;;;;;;10.03;53.66;100039.06;4259764;33;33442;-82
2023/01/22 00:43:33;;;;;;;8.85;4.65;;;;;;;8.50;59.27;100051.50;4260029;33;34506;-81
2023/01/22 00:46:00;;;;;;;8.98;5.12;;;;;;;10.54;53.37;100041.63;4260234;33;34533;-79
2023/01/22 00:48:28;;;;;;;8.73;4.50;;;;;;;9.89;54.34;100040.09;4260029;33;34691;-80
2023/01/22 00:50:55;;;;;;;8.75;4.22;;;;;;;10.75;52.07;100039.16;4258069;33;33937;-84
2023/01/22 00:53:23;;;;;;;7.75;4.43;;;;;;;10.54;53.16;100043.31;4259620;33;32709;-83
2023/01/22 00:55:56;;;;;;;7.78;4.45;;;;;;;10.28;53.63;100045.50;4259858;33;33467;-80
2023/01/22 00:58:25;;;;;;;9.10;5.22;;;;;;;11.89;49.06;100039.19;4259631;33;34272;-83
2023/01/22 01:00:52;;;;;;;7.87;4.15;;;;;;;11.38;50.36;100043.81;4247003;33;32845;-85
2023/01/22 01:03:26;;;;;;;8.68;4.30;;;;;;;10.80;51.77;100053.25;4244441;33;32165;-83
2023/01/22 01:06:06;;;;;;;8.65;4.50;;;;;;;12.00;48.75;100048.31;4258610;33;33965;-85
2023/01/22 01:08:35;;;;;;;9.02;4.62;;;;;;;11.21;49.33;100051.69;4246019;33;34687;-81
2023/01/22 01:11:06;;;;;;;8.25;4.45;;;;;;;10.56;52.71;100052.06;4263915;33;33180;-83
2023/01/22 01:13:37;;;;;;;8.00;3.87;;;;;;;11.91;49.33;100047.03;4261243;33;35559;-82
2023/01/22 01:16:07;;;;;;;8.90;4.87;;;;;;;11.44;49.78;100049.28;4263848;33;34048;-84
2023/01/22 01:18:35;;;;;;;8.02;4.32;;;;;;;10.55;51.98;100050.28;4274132;33;33252;-83
2023/01/22 01:21:03;;;;;;;7.85;3.80;;;;;;;9.74;53.90;100052.22;4250957;33;34098;-85
2023/01/22 01:23:31;;;;;;;7.00;3.58;;;;;;;10.03;54.13;100052.03;4263783;33;34608;-80
2023/01/22 01:26:03;;;;;;;7.68;3.80;;;;;;;11.03;51.71;100050.87;4262701;33;33779;-84
2023/01/22 01:28:33;;;;;;;7.45;3.70;;;;;;;10.53;52.21;100057.09;4264235;33;33952;-84
2023/01/22 01:31:04;;;;;;;7.20;3.37;;;;;;;10.48;53.14;100058.56;4264018;33;32667;-86
2023/01/22 01:33:32;;;;;;;6.50;3.42;;;;;;;10.16;53.96;100055.22;4263925;33;34569;-84
2023/01/22 01:36:01;;;;;;;8.65;3.45;;;;;;;10.51;53.55;100067.37;4263751;33;33973;-81
2023/01/22 01:38:29;;;;;;;9.65;3.20;;;;;;;11.47;50.73;100059.78;4264814;33;34201;-83
2023/01/22 01:41:07;;;;;;;6.53;3.10;;;;;;;9.38;56.85;100071.03;4261676;33;33378;-83
2023/01/22 01:43:35;;;;;;;7.75;3.00;;;;;;;9.87;55.63;100070.16;4261380;33;34043;-82
2023/01/22 01:46:03;;;;;;;7.03;3.78;;;;;;;10.55;53.52;100065.84;4262915;33;33987;-82
2023/01/22 01:48:37;;;;;;;7.12;3.80;;;;;;;11.58;51.08;100068.94;4250779;33;34151;-84
2023/01/22 01:51:13;;;;;;;5.87;3.40;;;;;;;11.81;49.00;100061.28;4250955;33;33216;-85
2023/01/22 01:53:43;;;;;;;6.75;3.22;;;;;;;10.43;53.71;100064.41;4271530;33;34063;-83
2023/01/22 01:56:14;;;;;;;6.12;3.45;;;;;;;10.10;54.04;100054.91;4259776;33;34542;-84
2023/01/22 01:58:42;;;;;;;6.85;3.12;;;;;;;8.77;58.65;100068.59;4259983;33;34337;-83
2023/01/22 02:01:13;;;;;;;5.53;3.00;;;;;;;9.56;56.92;100058.22;4251402;33;33891;-84
2023/01/22 02:03:41;;;;;;;6.82;3.28;;;;;;;11.50;51.44;100048.66;4251234;33;33885;-84
2023/01/22 02:06:10;;;;;;;7.32;3.45;;;;;;;10.73;52.95;100051.16;4262594;33;33650;-83
2023/01/22 02:08:39;;;;;;;7.18;3.17;;;;;;;11.58;51.02;100048.19;4263532;33;34705;-81
2023/01/22 02:11:07;;;;;;;6.30;3.35;;;;;;;11.92;49.61;100044.50;4250142;33;33039;-82
2023/01/22 02:13:37;;;;;;;6.40;3.42;;;;;;;11.16;51.26;100045.44;4262915;33;32322;-84
2023/01/22 02:16:06;;;;;;;7.10;3.20;;;;;;;10.59;52.54;100044.44;4244370;33;33327;-83
2023/01/22 02:18:34;;;;;;;7.62;3.85;;;;;;;10.35;53.74;100041.53;4263824;33;33955;-84
2023/01/22 02:21:01;;;;;;;7.28;3.58;;;;;;;10.19;54.21;100043.31;4262187;33;32964;-81
2023/01/22 02:23:30;;;;;;;6.90;3.58;;;;;;;9.72;55.12;100048.69;4249943;33;33701;-85
2023/01/22 02:25:59;;;;;;;6.40;3.67;;;;;;;9.78;55.33;100046.41;4250754;33;32404;-84
2023/01/22 02:28:26;;;;;;;6.72;3.40;;;;;;;8.99;57.89;100049.09;4260665;33;34781;-82
2023/01/22 02:30:54;;;;;;;6.60;3.72;;;;;;;10.07;54.76;100039.25;4261465;33;34440;-82
2023/01/22 02:33:21;;;;;;;5.93;3.00;;;;;;;10.16;54.27;100039.69;4260465;33;36228;-84
2023/01/22 02:35:49;;;;;;;8.35;3.47;;;;;;;9.53;55.83;100045.13;4260679;33;34275;-82
2023/01/22 02:38:17;;;;;;;6.60;3.30;;;;;;;8.91;57.77;100050.37;4261023;33;34718;-82
2023/01/22 02:40:47;;;;;;;6.53;3.40;;;;;;;9.62;56.30;100034.38;4254213;33;32849;-82
2023/01/22 02:43:15;;;;;;;7.93;3.30;;;;;;;9.64;55.63;100038.81;4252385;33;33611;-85
2023/01/22 02:45:43;;;;;;;6.97;2.67;;;;;;;9.82;54.78;100032.81;4261011;33;33828;-81
2023/01/22 02:48:11;;;;;;;6.28;3.35;;;;;;;9.42;55.65;100035.91;4260089;33;34448;-81
2023/01/22 02:50:39;;;;;;;7.25;3.58;;;;;;;9.32;56.05;100041.41;4261097;33;34063;-82
2023/01/22 02:53:07;;;;;;;5.72;3.30;;;;;;;8.74;58.04;100036.53;4260557;33;33764;-82
2023/01/22 02:55:34;;;;;;;5.62;3.22;;;;;;;8.82;58.00;100041.28;4261180;33;34746;-83
2023/01/22 02:58:02;;;;;;;6.15;3.35;;;;;;;8.69;57.97;100038.81;4261335;33;33781;-82
2023/01/22 03:00:29;;;;;;;6.22;3.25;;;;;;;8.60;58.88;100034.06;4260475;33;33443;-84
2023/01/22 03:02:57;;;;;;;6.75;3.28;;;;;;;9.05;57.60;100036.50;4260408;33;34479;-81
2023/01/22 03:05:25;;;;;;;6.62;3.53;;;;;;;9.71;55.48;100028.78;4260999;33;34017;-84
2023/01/22 03:07:54;;;;;;;5.82;3.08;;;;;;;10.00;54.75;100027.69;4260623;33;34121;-82
2023/01/22 03:10:21;;;;;;;6.55;3.05;;;;;;;8.90;57.52;100027.91;4246467;33;33183;-81
2023/01/22 03:21:18;;;;;;;5.68;2.62;;;;;;;8.80;57.91;100011.91;4260707;33;33976;-81
2023/01/22 03:23:48;;;;;;;6.32;3.03;;;;;;;8.28;59.49;100019.28;4247161;33;33914;-82
2023/01/22 03:26:17;;;;;;;6.53;3.10;;;;;;;7.94;61.28;100022.50;4260679;33;33028;-84
2023/01/22 03:28:45;;;;;;;7.82;4.32;;;;;;;8.81;59.09;100017.97;4260340;33;34030;-81
2023/01/22 03:31:14;;;;;;;7.82;3.00;;;;;;;8.76;59.20;100019.41;4260679;33;32232;-82
2023/01/22 03:33:44;;;;;;;6.55;3.42;;;;;;;9.35;56.78;100019.19;4259858;33;33726;-84
2023/01/22 03:36:13;;;;;;;7.65;3.60;;;;;;;8.78;58.87;100022.97;4259635;33;34714;-81
2023/01/22 03:38:44;;;;;;;6.70;3.80;;;;;;;9.12;57.84;100023.13;4260964;33;33898;-84
2023/01/22 03:41:14;;;;;;;9.13;4.20;;;;;;;7.26;65.22;100031.34;4260940;33;33133;-84
2023/01/22 03:43:42;;;;;;;7.62;3.53;;;;;;;9.04;58.75;100027.00;4260253;33;34754;-82
2023/01/22 03:46:16;;;;;;;8.00;3.78;;;;;;;9.35;56.69;100019.19;4247949;33;32388;-83
2023/01/22 03:48:49;;;;;;;7.00;3.70;;;;;;;10.00;55.19;100018.22;4248697;33;34458;-84
2023/01/22 03:51:17;;;;;;;6.28;3.00;;;;;;;10.24;54.89;100007.31;4259548;33;34000;-81
2023/01/22 03:53:45;;;;;;;5.35;3.15;;;;;;;10.30;54.25;99999.88;4260156;33;34915;-83
2023/01/22 03:56:18;;;;;;;5.68;3.08;;;;;;;10.23;54.32;100015.88;4250438;33;33822;-84
2023/01/22 03:58:47;;;;;;;5.78;2.55;;;;;;;9.62;55.87;100011.97;4248076;33;33735;-81
2023/01/22 04:01:26;;;;;;;5.70;2.60;;;;;;;9.42;56.85;100012.63;4245523;33;33405;-84
2023/01/22 04:03:54;;;;;;;6.28;2.37;;;;;;;8.58;58.93;100019.28;4261215;33;33710;-84
2023/01/22 04:06:23;;;;;;;4.93;2.37;;;;;;;8.96;58.35;100034.31;4259942;33;33806;-83
2023/01/22 04:08:53;;;;;;;4.78;2.20;;;;;;;9.60;57.04;100026.53;4260389;33;33586;-82
2023/01/22 04:11:22;;;;;;;6.72;3.35;;;;;;;9.92;55.69;100024.69;4260896;33;33652;-83
2023/01/22 04:13:49;;;;;;;6.60;3.33;;;;;;;8.34;60.08;100024.78;4260199;33;33984;-83
2023/01/22 04:16:17;;;;;;;4.40;2.17;;;;;;;9.33;57.66;100025.06;4260512;33;33973;-84
2023/01/22 04:18:48;;;;;;;4.72;2.55;;;;;;;8.82;58.92;100019.75;4260788;33;34566;-84
2023/01/22 04:21:16;;;;;;;7.95;3.78;;;;;;;8.81;59.24;100023.16;4260628;33;31862;-83
2023/01/22 04:23:44;;;;;;;10.50;4.62;;;;;;;8.37;60.44;100012.06;4260431;33;34487;-84
2023/01/22 04:26:11;;;;;;;8.27;4.32;;;;;;;8.15;61.14;100021.94;4259902;33;34032;-83
2023/01/22 04:28:39;;;;;;;7.70;4.18;;;;;;;7.35;63.89;100017.22;4247263;33;34009;-82
2023/01/22 04:31:08;;;;;;;7.18;3.75;;;;;;;7.43;63.53;100016.00;4259654;33;33902;-82
2023/01/22 04:33:37;;;;;;;9.52;5.15;;;;;;;6.93;65.77;100026.66;4259218;33;36262;-83
2023/01/22 04:36:05;;;;;;;10.43;4.80;;;;;;;7.15;65.57;100028.91;4259143;33;34093;-83
2023/01/22 04:38:32;;;;;;;9.18;5.40;;;;;;;6.66;66.53;100029.25;4256331;33;34634;-81
2023/01/22 04:41:00;;;;;;;7.97;4.50;;;;;;;3.47;79.64;100036.87;4259150;33;32995;-82
2023/01/22 04:43:28;;;;;;;8.65;3.97;;;;;;;5.99;72.24;100029.22;4260246;33;34290;-83
2023/01/22 04:45:55;;;;;;;9.88;4.65;;;;;;;4.43;76.45;100035.50;4258599;33;33393;-81
2023/01/22 04:48:25;;;;;;;9.45;4.50;;;;;;;4.12;80.36;100033.25;4260326;33;34541;-82
2023/01/22 04:50:53;;;;;;;9.32;4.55;;;;;;;5.69;74.85;100028.91;4260364;33;34180;-84
2023/01/22 04:53:20;;;;;;;9.18;4.28;;;;;;;4.89;78.05;100038.81;4260666;33;33465;-82
2023/01/22 04:55:48;;;;;;;8.40;4.03;;;;;;;5.93;72.82;100025.31;4246687;33;33204;-81
2023/01/22 04:58:15;;;;;;;9.73;4.60;;;;;;;6.30;70.92;100036.41;4259590;33;34177;-82
2023/01/22 05:00:43;;;;;;;8.48;3.72;;;;;;;4.69;74.63;100039.97;4246747;33;34334;-83
2023/01/22 05:03:11;;;;;;;7.65;4.15;;;;;;;6.13;72.31;100031.84;4260033;33;34493;-84
2023/01/22 05:05:40;;;;;;;7.47;3.67;;;;;;;6.58;69.38;100022.75;4259697;33;34619;-81
2023/01/22 05:08:07;;;;;;;8.60;4.12;;;;;;;6.49;69.18;100029.09;4260139;33;33469;-84
2023/01/22 05:10:35;;;;;;;9.75;4.85;;;;;;;5.66;71.04;100036.44;4260250;33;33228;-81
2023/01/22 05:13:04;;;;;;;9.15;6.07;;;;;;;7.12;67.26;100044.16;4260161;33;34533;-83
2023/01/22 05:15:32;;;;;;;10.63;6.20;;;;;;;4.57;75.65;100043.31;4260159;33;34558;-84
2023/01/22 05:18:02;;;;;;;8.48;4.80;;;;;;;5.54;72.36;100060.38;4259921;33;34728;-84
2023/01/22 05:20:33;;;;;;;8.88;4.53;;;;;;;4.80;77.25;100062.94;4259939;33;33891;-84
2023/01/22 05:23:01;;;;;;;9.43;4.95;;;;;;;6.30;71.57;100059.56;4259735;33;33671;-85
2023/01/22 05:25:29;;;;;;;8.73;4.95;;;;;;;3.94;78.92;100068.69;4259793;33;33485;-82
2023/01/22 05:27:58;;;;;;;9.52;4.35;;;;;;;6.99;69.45;100065.66;4260071;33;34591;-82
2023/01/22 05:30:26;;;;;;;8.90;5.45;;;;;;;6.95;65.77;100053.41;4259255;33;34014;-85
2023/01/22 05:32:55;;;;;;;9.23;4.07;;;;;;;5.00;73.97;100084.87;4259658;33;34255;-82
2023/01/22 05:35:23;;;;;;;8.65;4.37;;;;;;;4.96;78.26;100093.16;4259149;33;34531;-85
2023/01/22 05:37:51;;;;;;;10.98;5.32;;;;;;;4.92;76.57;100092.94;4247485;33;33747;-84
2023/01/22 05:40:19;;;;;;;11.60;5.75;;;;;;;3.54;82.22;100095.50;4259369;33;33993;-82
2023/01/22 05:42:47;;;;;;;12.73;7.00;;;;;;;5.96;74.71;100093.31;4259632;33;33902;-81
2023/01/22 05:45:14;;;;;;;11.20;5.82;;;;;;;4.93;74.81;100102.41;4258295;33;34703;-82
2023/01/22 05:47:43;;;;;;;11.38;5.37;;;;;;;6.13;71.29;100109.00;4258955;33;34712;-84
2023/01/22 05:50:11;;;;;;;12.48;6.05;;;;;;;4.92;76.60;100112.56;4259162;33;33914;-82
2023/01/22 05:52:38;;;;;;;15.27;6.20;;;;;;;7.36;68.64;100107.53;4259249;33;34542;-84
2023/01/22 05:55:07;;;;;;;12.55;6.37;;;;;;;7.49;66.06;100109.16;4258884;33;33607;-84
2023/01/22 05:57:35;;;;;;;10.45;5.03;;;;;;;7.42;67.29;100107.03;4260616;33;34625;-82
2023/01/22 06:00:04;;;;;;;10.48;5.65;;;;;;;8.59;62.65;100106.25;4261463;33;33202;-85
2023/01/22 06:02:43;;;;;;;11.57;5.57;;;;;;;5.66;70.55;100120.31;4260886;33;33500;-81
2023/01/22 06:05:11;;;;;;;13.98;6.72;;;;;;;7.28;67.76;100119.94;4261062;33;33871;-84
2023/01/22 06:07:39;;;;;;;13.57;6.50;;;;;;;8.81;61.35;100110.97;4261269;33;33795;-82
2023/01/22 06:10:07;;;;;;;13.02;7.10;;;;;;;7.56;63.81;100111.31;4259885;33;32518;-85
2023/01/22 06:12:37;;;;;;;13.60;7.12;;;;;;;6.04;72.04;100123.00;4260634;33;33257;-82
2023/01/22 06:15:05;;;;;;;14.38;6.97;;;;;;;5.06;74.98;100135.00;4260988;33;34101;-84
2023/01/22 06:17:33;;;;;;;13.27;7.70;;;;;;;5.31;74.65;100132.50;4271208;33;33932;-83
2023/01/22 06:20:05;;;;;;;13.05;7.32;;;;;;;4.63;77.10;100136.13;4260911;33;33434;-83
2023/01/22 06:22:32;;;;;;;15.90;7.70;;;;;;;5.05;76.00;100138.34;4245743;33;33547;-83
2023/01/22 06:25:00;;;;;;;17.87;7.47;;;;;;;4.34;80.16;100142.53;4261212;33;34284;-84
2023/01/22 06:27:30;;;;;;;16.45;8.13;;;;;;;6.30;72.91;100139.31;4260722;33;34173;-84
2023/01/22 06:29:58;;;;;;;18.42;8.73;;;;;;;7.95;65.29;100148.06;4246205;33;32931;-81
2023/01/22 06:32:26;;;;;;;20.77;9.30;;;;;;;7.76;65.45;100150.34;4258595;33;34270;-85
2023/01/22 06:34:53;;;;;;;13.38;7.22;;;;;;;6.63;69.75;100166.37;4261179;33;34697;-85
2023/01/22 06:37:21;;;;;;;15.63;7.55;;;;;;;5.46;73.81;100175.47;4259757;33;34030;-84
2023/01/22 06:39:49;;;;;;;12.45;7.28;;;;;;;4.18;80.47;100189.22;4260728;33;33416;-83
2023/01/22 06:42:17;;;;;;;16.08;6.87;;;;;;;5.11;77.69;100181.56;4260822;33;33969;-84
2023/01/22 06:44:45;;;;;;;14.60;7.35;;;;;;;4.81;78.18;100177.62;4260087;33;33957;-83
2023/01/22 06:47:12;;;;;;;16.67;7.78;;;;;;;5.20;77.69;100179.66;4260248;33;33591;-83
2023/01/22 06:49:40;;;;;;;14.98;7.97;;;;;;;5.53;75.83;100175.13;4260500;33;33977;-84
2023/01/22 06:52:07;;;;;;;13.30;7.20;;;;;;;7.42;69.86;100171.44;4260385;33;33956;-83
2023/01/22 06:54:35;;;;;;;17.25;7.75;;;;;;;8.82;64.81;100170.44;4260429;33;33934;-85
2023/01/22 06:57:04;;;;;;;14.87;7.68;;;;;;;10.43;57.96;100161.94;4259784;33;34678;-85
2023/01/22 06:59:34;;;;;;;12.73;6.97;;;;;;;10.44;56.67;100166.28;4260837;33;33729;-83
2023/01/22 07:02:03;;;;;;;12.15;7.00;;;;;;;8.63;61.77;100177.94;4259298;33;32333;-82
2023/01/22 07:04:31;;;;;;;13.43;6.43;;;;;;;7.10;68.10;100185.72;4259766;33;33477;-85
2023/01/22 07:06:58;;;;;;;16.60;7.32;;;;;;;7.38;67.32;100184.91;4247571;33;33217;-82
2023/01/22 07:09:26;;;;;;;13.40;7.05;;;;;;;5.25;75.46;100198.88;4261042;33;34197;-82
2023/01/22 07:11:56;;;;;;;12.95;7.10;;;;;;;6.65;71.69;100202.53;4253962;33;225735;-85
2023/01/22 07:14:23;;;;;;;22.05;10.50;;;;;;;8.22;66.43;100199.56;4247870;33;33346;-85
2023/01/22 07:17:03;;;;;;;21.60;10.35;;;;;;;6.86;70.49;100206.53;4260996;33;34512;-83
2023/01/22 07:19:31;;;;;;;21.52;10.90;;;;;;;7.51;67.86;100190.06;4261126;33;33259;-81
2023/01/22 07:21:58;;;;;;;19.37;10.82;;;;;;;8.02;66.59;100200.94;4244876;33;33204;-85
2023/01/22 07:24:26;;;;;;;23.27;10.98;;;;;;;7.87;66.87;100209.50;4250716;33;34549;-82
2023/01/22 07:26:54;;;;;;;24.25;12.48;;;;;;;7.86;68.39;100212.00;4252877;33;34095;-83
2023/01/22 07:29:21;;;;;;;27.60;13.15;;;;;;;8.05;66.56;100219.19;4256262;33;33432;-85
2023/01/22 07:31:49;;;;;;;23.87;12.60;;;;;;;7.98;66.72;100223.09;4256906;33;33961;-84
2023/01/22 07:34:16;;;;;;;27.23;13.85;;;;;;;9.27;62.71;100218.59;4260235;33;33372;-84
2023/01/22 07:36:47;;;;;;;24.90;12.37;;;;;;;8.66;64.22;100228.06;4258251;33;33907;-82
2023/01/22 07:39:14;;;;;;;24.12;13.07;;;;;;;9.73;60.96;100228.94;4260273;33;33623;-82
2023/01/22 07:41:42;;;;;;;23.60;12.63;;;;;;;10.13;59.81;100226.81;4256698;33;34602;-82
2023/01/22 07:44:10;;;;;;;23.23;12.55;;;;;;;8.77;62.41;100225.22;4260010;33;33824;-84
2023/01/22 07:46:38;;;;;;;19.02;11.25;;;;;;;9.41;62.10;100230.63;4258320;33;33394;-85
2023/01/22 07:49:06;;;;;;;20.75;11.25;;;;;;;10.08;59.68;100238.59;4259328;33;33353;-84
2023/01/22 07:51:33;;;;;;;20.25;11.40;;;;;;;9.81;60.83;100235.41;4259466;33;34603;-85
2023/01/22 07:54:02;;;;;;;21.35;13.98;;;;;;;10.13;59.86;100236.28;4259760;33;33848;-82
2023/01/22 07:56:29;;;;;;;24.35;17.62;;;;;;;9.42;61.37;100237.56;4258444;33;34234;-83
2023/01/22 07:58:56;;;;;;;29.90;20.17;;;;;;;10.01;60.19;100237.41;4259676;33;34100;-86
2023/01/22 08:01:24;;;;;;;29.27;18.52;;;;;;;9.78;61.10;100237.84;4256115;33;34613;-86
2023/01/22 08:03:52;;;;;;;24.58;14.32;;;;;;;10.34;59.25;100231.38;4254051;33;33616;-85
2023/01/22 08:06:19;;;;;;;28.73;15.30;;;;;;;8.33;64.20;100237.25;4251221;33;33912;-81
2023/01/22 08:08:47;;;;;;;27.98;16.60;;;;;;;9.04;63.80;100233.72;4244219;33;33673;-84
2023/01/22 08:11:15;;;;;;;25.62;15.35;;;;;;;9.05;63.13;100235.47;4249529;33;33877;-85
2023/01/22 08:13:42;;;;;;;14.95;9.73;;;;;;;9.72;61.11;100242.69;4259321;33;34535;-83
2023/01/22 08:16:09;;;;;;;10.18;5.20;;;;;;;8.08;68.15;100258.97;4258658;33;34917;-83
2023/01/22 08:18:37;;;;;;;10.18;5.43;;;;;;;9.93;62.04;100272.31;4257509;33;33607;-83
2023/01/22 08:21:05;;;;;;;7.68;4.47;;;;;;;10.00;60.84;100268.34;4260149;33;34772;-85
2023/01/22 08:23:32;;;;;;;8.48;4.15;;;;;;;10.77;59.21;100269.88;4260789;33;33930;-86
2023/01/22 08:26:02;;;;;;;8.27;4.00;;;;;;;9.93;60.30;100274.00;4257688;33;33357;-82
2023/01/22 08:28:30;;;;;;;8.57;4.60;;;;;;;10.24;60.29;100274.00;4258160;33;33619;-84
2023/01/22 08:30:59;;;;;;;6.97;3.80;;;;;;;10.93;58.44;100271.53;4257435;33;34402;-82
2023/01/22 08:33:28;;;;;;;7.78;3.85;;;;;;;10.48;59.55;100279.59;4258482;33;33923;-82
2023/01/22 08:35:55;;;;;;;7.40;3.75;;;;;;;11.15;58.14;100279.59;4255401;33;34243;-83
2023/01/22 08:38:23;;;;;;;6.95;3.92;;;;;;;11.26;57.18;100277.53;4253217;33;32987;-83
2023/01/22 08:40:51;;;;;;;8.63;3.70;;;;;;;10.75;58.65;100281.84;4253227;33;33730;-83
2023/01/22 08:43:19;;;;;;;7.87;4.47;;;;;;;10.42;59.28;100290.53;4249646;33;33385;-85
2023/01/22 08:45:47;;;;;;;8.38;4.12;;;;;;;11.43;56.01;100288.72;4257720;33;33642;-85
2023/01/22 08:48:15;;;;;;;10.30;4.70;;;;;;;10.85;57.52;100296.16;4256623;33;33434;-84
2023/01/22 08:50:43;;;;;;;9.00;5.05;;;;;;;10.65;57.53;100306.41;4256831;33;34611;-84
2023/01/22 08:53:10;;;;;;;8.65;4.32;;;;;;;10.37;57.96;100307.53;4257827;33;33635;-85
2023/01/22 08:55:38;;;;;;;8.00;4.80;;;;;;;9.94;59.46;100312.03;4260503;33;33883;-82
2023/01/22 08:58:05;;;;;;;8.50;4.47;;;;;;;10.25;58.51;100314.59;4260251;33;33696;-82
2023/01/22 09:00:33;;;;;;;9.20;4.45;;;;;;;10.49;58.10;100319.34;4260326;33;34184;-80
2023/01/22 09:03:00;;;;;;;7.45;4.28;;;;;;;10.52;58.32;100319.50;4259524;33;33730;-86
2023/01/22 09:05:28;;;;;;;8.65;4.55;;;;;;;10.55;58.30;100333.50;4259602;33;34067;-82
2023/01/22 09:07:55;;;;;;;8.82;4.45;;;;;;;10.31;59.41;100320.12;4264992;33;33073;-81
2023/01/22 09:10:23;;;;;;;7.85;4.65;;;;;;;10.49;58.76;100325.44;4259961;33;34641;-84
2023/01/22 09:12:51;;;;;;;8.57;4.72;;;;;;;9.62;61.19;100319.78;4257839;33;33929;-82
2023/01/22 09:15:18;;;;;;;8.57;4.55;;;;;;;10.49;59.02;100334.88;4259935;33;34094;-83
2023/01/22 09:17:46;;;;;;;10.52;5.37;;;;;;;10.54;58.60;100333.44;4259145;33;33267;-85
2023/01/22 09:20:14;;;;;;;10.27;5.53;;;;;;;9.80;60.45;100326.78;4259137;33;34790;-85
2023/01/22 09:22:44;;;;;;;10.13;5.15;;;;;;;10.79;58.35;100333.91;4259860;33;33876;-84
2023/01/22 09:25:12;;;;;;;8.98;5.47;;;;;;;9.91;59.79;100338.63;4259186;33;33173;-84
2023/01/22 09:27:42;;;;;;;9.25;5.25;;;;;;;10.36;58.49;100342.00;4259431;33;34279;-84
2023/01/22 09:30:10;;;;;;;11.10;5.25;;;;;;;9.97;59.98;100338.97;4259359;33;33810;-83
2023/01/22 09:32:37;;;;;;;9.07;5.03;;;;;;;9.90;60.44;100339.41;4260385;33;34674;-83
2023/01/22 09:35:07;;;;;;;8.35;5.40;;;;;;;10.05;59.76;100341.97;4259655;33;33359;-85
2023/01/22 09:37:34;;;;;;;8.82;5.32;;;;;;;10.66;58.17;100343.53;4260954;33;33955;-84
2023/01/22 09:40:02;;;;;;;10.05;5.18;;;;;;;10.87;57.84;100348.97;4260507;33;33712;-85
2023/01/22 09:42:32;;;;;;;10.80;5.62;;;;;;;10.48;58.73;100348.66;4261189;33;33973;-82
2023/01/22 09:45:04;;;;;;;11.15;5.72;;;;;;;9.97;60.83;100338.09;4261503;33;33332;-84
2023/01/22 09:47:40;;;;;;;10.95;5.97;;;;;;;9.53;62.29;100360.62;4255076;33;34237;-81
2023/01/22 09:50:17;;;;;;;10.32;6.07;;;;;;;10.17;60.36;100357.31;4246137;33;33911;-83
2023/01/22 09:52:45;;;;;;;11.05;6.18;;;;;;;10.67;59.20;100354.00;4259006;33;33544;-82
2023/01/22 09:55:16;;;;;;;9.77;5.90;;;;;;;10.43;59.17;100359.66;4260742;33;32668;-85
2023/01/22 09:57:45;;;;;;;10.10;5.65;;;;;;;10.56;59.63;100357.72;4248084;33;32663;-83
2023/01/22 10:00:16;;;;;;;10.68;6.43;;;;;;;10.78;59.09;100355.47;4260626;33;33935;-84
2023/01/22 10:02:53;;;;;;;9.70;6.10;;;;;;;11.25;57.79;100352.66;4248237;33;33038;-82
2023/01/22 10:05:32;;;;;;;10.88;5.80;;;;;;;11.02;58.19;100355.84;4260691;33;33564;-83
2023/01/22 10:08:08;;;;;;;10.30;5.82;;;;;;;11.45;57.21;100356.25;4259769;33;34530;-84
2023/01/22 10:10:36;;;;;;;10.63;5.87;;;;;;;11.01;58.61;100356.66;4259931;33;34732;-80
2023/01/22 10:13:11;;;;;;;10.15;5.78;;;;;;;11.43;57.31;100357.88;4259937;33;33423;-82
2023/01/22 10:15:39;;;;;;;9.15;5.07;;;;;;;11.92;55.47;100361.22;4258025;33;33515;-83
2023/01/22 10:18:36;;;;;;;11.07;5.50;;;;;;;11.25;57.35;100357.84;4258934;33;33361;-80
2023/01/22 10:21:16;;;;;;;10.10;6.30;;;;;;;10.88;57.86;100355.97;4238809;33;34405;-81
2023/01/22 10:23:43;;;;;;;9.63;5.60;;;;;;;11.13;57.77;100361.59;4249139;33;33625;-84
2023/01/22 10:26:17;;;;;;;9.60;6.15;;;;;;;11.81;55.89;100357.19;4258985;33;33221;-84
2023/01/22 10:28:47;;;;;;;10.30;5.32;;;;;;;11.39;57.16;100352.53;4258473;33;33461;-81
2023/01/22 10:31:26;;;;;;;10.88;6.05;;;;;;;10.95;58.45;100368.41;4244135;33;33267;-84
2023/01/22 10:33:56;;;;;;;11.95;6.35;;;;;;;10.79;58.87;100364.12;4256811;33;34553;-82
2023/01/22 10:36:24;;;;;;;11.23;6.60;;;;;;;11.73;56.36;100358.50;4256225;33;34024;-82
2023/01/22 10:39:09;;;;;;;18.90;10.98;;;;;;;11.54;56.75;100367.97;4255185;33;34264;-82
2023/01/22 10:41:39;;;;;;;40.83;24.27;;;;;;;10.74;58.55;100374.25;4256061;33;33863;-83
2023/01/22 10:44:23;;;;;;;13.90;8.65;;;;;;;11.17;58.11;100370.41;4255456;33;34023;-82
2023/01/22 10:46:53;;;;;;;12.02;7.50;;;;;;;10.88;58.84;100366.31;4256247;33;34060;-81
2023/01/22 10:49:22;;;;;;;17.08;9.90;;;;;;;10.96;58.11;100360.72;4243789;33;33422;-81
2023/01/22 10:51:59;;;;;;;29.37;19.45;;;;;;;11.65;56.35;100370.19;4259988;33;33961;-83
2023/01/22 10:54:38;;;;;;;23.35;13.43;;;;;;;11.04;58.47;100368.87;4258204;33;34719;-82
2023/01/22 10:57:18;;;;;;;11.95;6.15;;;;;;;10.55;59.54;100381.84;4247282;33;33794;-83
2023/01/22 11:00:19;;;;;;;10.55;6.53;;;;;;;10.99;58.50;100375.53;4248124;33;33774;-83
2023/01/22 11:02:48;;;;;;;11.90;7.28;;;;;;;10.24;61.32;100380.13;4259620;33;34640;-82
2023/01/22 11:05:29;;;;;;;12.48;7.60;;;;;;;11.03;59.50;100382.69;4245840;33;34614;-84
2023/01/22 11:08:03;;;;;;;12.55;7.75;;;;;;;10.59;60.58;100388.97;4245220;33;33603;-84
2023/01/22 11:10:49;;;;;;;14.25;7.43;;;;;;;11.24;58.75;100389.75;4258226;33;32436;-82
2023/01/22 11:13:22;;;;;;;11.35;7.00;;;;;;;10.64;60.88;100382.31;4252616;33;33961;-83
2023/01/22 11:16:11;;;;;;;10.27;6.95;;;;;;;10.66;60.70;100385.00;4259694;33;34320;-83
2023/01/22 11:19:11;;;;;;;11.57;7.62;;;;;;;11.36;58.93;100377.44;4243766;33;33793;-85
2023/01/22 11:21:46;;;;;;;10.55;6.00;;;;;;;11.38;58.77;100381.00;4256034;33;33491;-83
2023/01/22 11:24:20;;;;;;;13.65;7.90;;;;;;;10.75;60.20;100381.19;4256244;33;34852;-87
2023/01/22 11:26:54;;;;;;;11.20;6.97;;;;;;;11.08;59.14;100383.78;4246369;33;33604;-82
2023/01/22 11:29:40;;;;;;;12.00;6.68;;;;;;;10.23;62.01;100383.53;4258685;33;33979;-84
2023/01/22 11:32:37;;;;;;;15.75;9.25;;;;;;;10.81;60.37;100391.88;4253064;33;34200;-86
2023/01/22 11:35:18;;;;;;;15.93;8.57;;;;;;;11.76;57.78;100385.50;4257203;33;34262;-82
2023/01/22 11:38:11;;;;;;;11.57;6.97;;;;;;;11.80;57.97;100397.81;4236163;33;34436;-81
2023/01/22 11:40:42;;;;;;;13.68;7.22;;;;;;;11.29;58.98;100406.47;4256638;33;34116;-84
2023/01/22 11:43:33;;;;;;;20.65;14.63;;;;;;;11.64;57.73;100400.47;4248200;33;33352;-81
2023/01/22 11:46:04;;;;;;;13.07;8.25;;;;;;;12.42;55.55;100399.91;4246366;33;33520;-81